Time;durP1;ratioP1;P1;durP2;ratioP2;P2;SDS_P1;SDS_P2;PMS_P1;PMS_P2;Temp;Humidity;BMP_temperature;BMP_pressure;BME280_temperature;BME280_humidity;BME280_pressure;Samples;Min_cycle;Max_cycle;Signal;HPM_P1;HPM_P2
2021/12/08 06:15:04;;;;;;;;;;;;;;;5.55;92.60;95392.25;4233472;27;10198;-69
2021/12/08 06:17:15;;;;;;;;;;;;;;;5.48;93.53;95399.28;4215129;28;5772;-68
2021/12/08 06:19:19;;;;;;;;;;;;;;;5.50;92.84;95402.50;4213265;28;5656;-68
2021/12/08 06:21:30;;;;;;;;;;;;;;;5.55;92.70;95415.84;4215035;28;5635;-69
2021/12/08 06:23:32;;;;;;;;;;;;;;;5.61;92.36;95422.91;4198266;28;5562;-68
2021/12/08 06:25:36;;;;;;;;;;;;;;;5.62;92.29;95432.41;4232105;28;5836;-68
2021/12/08 06:27:38;;;;;;;;;;;;;;;5.55;92.25;95428.94;4215040;28;5635;-68
2021/12/08 06:29:42;;;;;;;;;;;;;;;5.55;92.23;95421.09;4220951;28;5767;-68
2021/12/08 06:31:44;;;;;;;;;;;;;;;5.34;92.19;95418.56;4225824;28;5617;-68
2021/12/08 06:33:46;;;;;;;;;;;;;;;5.57;91.37;95408.59;4214746;28;5767;-69
2021/12/08 06:35:53;;;;;;;;;;;;;;;5.39;91.46;95403.06;4205974;28;5694;-69
2021/12/08 06:37:55;;;;;;;;;;;;;;;5.43;90.73;95393.78;4205746;28;5774;-68
2021/12/08 06:40:11;;;;;;;;;;;;;;;5.46;91.24;95393.41;4213447;28;5643;-69
2021/12/08 06:42:17;;;;;;;;;;;;;;;5.36;91.53;95404.25;4161528;28;5767;-69
2021/12/08 06:44:24;;;;;;;;;;;;;;;5.28;91.22;95406.22;4192669;28;5818;-69
2021/12/08 06:46:28;;;;;;;;;;;;;;;5.16;90.95;95409.38;4216010;28;5655;-68
2021/12/08 06:48:37;;;;;;;;;;;;;;;5.17;90.40;95410.19;4215855;28;5635;-68
2021/12/08 06:50:49;;;;;;;;;;;;;;;5.18;90.00;95412.63;4217045;28;5695;-69
2021/12/08 06:52:51;;;;;;;;;;;;;;;5.07;90.08;95418.41;4216158;28;5648;-69
2021/12/08 06:55:01;;;;;;;;;;;;;;;4.97;90.01;95408.25;4216322;28;5756;-69
2021/12/08 06:57:14;;;;;;;;;;;;;;;4.89;90.45;95412.84;4216045;28;5632;-70
2021/12/08 06:59:21;;;;;;;;;;;;;;;4.91;89.88;95416.09;4181522;28;5665;-69
2021/12/08 07:03:50;;;;;;;;;;;;;;;4.66;91.07;95406.06;4205601;28;5742;-69
2021/12/08 07:08:09;;;;;;;;;;;;;;;4.99;90.03;95392.38;4197167;28;5710;-70
2021/12/08 07:10:20;;;;;;;;;;;;;;;5.16;89.39;95398.91;4169909;28;5665;-70
2021/12/08 07:12:26;;;;;;;;;;;;;;;5.07;89.44;95400.06;4210128;28;5627;-69
2021/12/08 07:14:30;;;;;;;;;;;;;;;5.17;89.11;95403.16;4196134;28;6493;-69
2021/12/08 07:16:37;;;;;;;;;;;;;;;5.04;88.95;95416.16;4171276;28;5917;-69
2021/12/08 07:18:52;;;;;;;;;;;;;;;5.04;88.40;95429.28;4172495;28;5798;-69
2021/12/08 07:20:58;;;;;;;;;;;;;;;4.91;88.02;95435.22;4170360;28;5658;-69
2021/12/08 07:23:01;;;;;;;;;;;;;;;4.85;88.70;95451.69;4195020;28;5647;-70
2021/12/08 07:25:04;;;;;;;;;;;;;;;4.88;87.69;95453.13;4187644;28;5658;-69
2021/12/08 07:27:15;;;;;;;;;;;;;;;4.94;87.50;95454.97;4188184;28;5646;-69
2021/12/08 07:29:23;;;;;;;;;;;;;;;4.97;87.15;95476.34;4153441;28;5687;-69
2021/12/08 07:31:34;;;;;;;;;;;;;;;4.82;87.69;95470.41;4189249;28;5856;-69
2021/12/08 07:33:37;;;;;;;;;;;;;;;4.79;87.57;95472.59;4193394;28;5658;-69
2021/12/08 07:35:44;;;;;;;;;;;;;;;4.73;87.64;95471.53;4191064;28;5662;-69
2021/12/08 07:37:46;;;;;;;;;;;;;;;4.77;87.97;95478.03;4166289;28;6566;-69
2021/12/08 07:39:58;;;;;;;;;;;;;;;4.79;87.66;95476.03;4181649;28;7036;-69
2021/12/08 07:42:35;;;;;;;;;;;;;;;4.55;88.37;95469.38;4185323;28;5778;-69
2021/12/08 07:44:37;;;;;;;;;;;;;;;4.27;88.44;95485.00;4181321;28;5736;-69
2021/12/08 07:46:46;;;;;;;;;;;;;;;4.26;88.29;95500.88;4194966;28;5667;-69
2021/12/08 07:48:58;;;;;;;;;;;;;;;4.56;86.03;95501.59;4168833;28;5670;-68
2021/12/08 07:51:06;;;;;;;;;;;;;;;4.63;84.76;95492.78;4187041;28;5806;-69
2021/12/08 07:53:09;;;;;;;;;;;;;;;4.55;83.35;95479.03;4187593;28;5651;-69
2021/12/08 07:55:18;;;;;;;;;;;;;;;3.91;83.51;95471.94;4186963;28;5646;-69
2021/12/08 07:57:25;;;;;;;;;;;;;;;3.67;84.45;95457.38;4181687;28;5876;-69
2021/12/08 07:59:28;;;;;;;;;;;;;;;3.52;85.44;95447.97;4185002;28;5661;-69
2021/12/08 08:01:36;;;;;;;;;;;;;;;3.33;85.96;95452.75;4203576;28;5683;-69
2021/12/08 08:03:42;;;;;;;;;;;;;;;3.31;87.03;95462.56;4173436;28;5669;-70
2021/12/08 08:05:45;;;;;;;;;;;;;;;3.01;87.44;95451.28;4187947;28;5736;-69
2021/12/08 08:07:48;;;;;;;;;;;;;;;3.06;87.81;95445.50;4186390;28;5749;-69
2021/12/08 08:09:59;;;;;;;;;;;;;;;3.15;87.96;95457.50;4185793;28;5742;-69
2021/12/08 08:12:04;;;;;;;;;;;;;;;3.06;88.88;95463.78;4182916;28;5978;-68
2021/12/08 08:14:06;;;;;;;;;;;;;;;3.03;88.46;95475.41;4191368;28;5647;-68
2021/12/08 08:16:13;;;;;;;;;;;;;;;3.03;88.68;95477.22;4186602;28;5868;-69
2021/12/08 08:18:19;;;;;;;;;;;;;;;2.96;89.58;95479.75;4189226;28;5643;-69
2021/12/08 08:20:31;;;;;;;;;;;;;;;3.12;89.34;95482.16;4197985;28;5654;-69
2021/12/08 08:22:33;;;;;;;;;;;;;;;3.16;88.97;95482.63;4169028;28;5782;-69
2021/12/08 08:24:36;;;;;;;;;;;;;;;3.05;88.94;95481.25;4168092;28;6445;-69
2021/12/08 08:26:40;;;;;;;;;;;;;;;3.28;89.71;95475.97;4185286;28;5654;-69
2021/12/08 08:28:47;;;;;;;;;;;;;;;3.16;89.31;95486.03;4174888;28;5642;-75
2021/12/08 08:31:03;;;;;;;;;;;;;;;3.10;89.45;95484.16;4186970;28;5803;-69
2021/12/08 08:33:08;;;;;;;;;;;;;;;3.08;89.61;95486.16;4188671;28;5634;-69
2021/12/08 08:35:18;;;;;;;;;;;;;;;3.07;90.12;95478.50;4183860;28;5840;-73
2021/12/08 08:37:22;;;;;;;;;;;;;;;3.19;89.76;95464.00;4167764;28;5792;-72
2021/12/08 08:39:32;;;;;;;;;;;;;;;3.17;89.25;95455.50;4187392;28;5118;-71
2021/12/08 08:41:51;;;;;;;;;;;;;;;2.98;89.86;95443.00;4184985;28;5639;-70
2021/12/08 08:43:56;;;;;;;;;;;;;;;2.92;90.55;95432.28;4185571;28;5666;-70
2021/12/08 08:46:11;;;;;;;;;;;;;;;2.98;89.98;95437.78;4168316;28;5665;-70
2021/12/08 08:48:21;;;;;;;;;;;;;;;3.05;90.00;95438.66;4170056;28;6023;-71
2021/12/08 08:50:28;;;;;;;;;;;;;;;3.16;89.22;95441.66;4171764;28;5650;-73
2021/12/08 08:52:36;;;;;;;;;;;;;;;3.01;89.80;95430.41;4190193;28;5648;-72
2021/12/08 08:54:50;;;;;;;;;;;;;;;3.20;89.46;95427.25;4193761;28;5818;-71
2021/12/08 08:57:02;;;;;;;;;;;;;;;2.89;89.35;95430.03;4195186;28;5632;-70
2021/12/08 08:59:17;;;;;;;;;;;;;;;3.07;89.15;95452.38;4199404;28;5655;-69
2021/12/08 09:01:25;;;;;;;;;;;;;;;3.22;88.97;95456.59;4202070;28;5784;-69
2021/12/08 09:03:34;;;;;;;;;;;;;;;3.31;88.75;95465.16;4195910;28;5662;-69
2021/12/08 09:05:44;;;;;;;;;;;;;;;3.32;89.13;95468.59;4197384;28;5099;-69
2021/12/08 09:07:52;;;;;;;;;;;;;;;3.07;90.15;95468.06;4178584;28;7725;-71
2021/12/08 09:09:57;;;;;;;;;;;;;;;3.20;89.79;95466.44;4185957;28;5650;-71
2021/12/08 09:12:11;;;;;;;;;;;;;;;3.16;88.63;95467.75;4174561;28;5782;-72
2021/12/08 09:14:33;;;;;;;;;;;;;;;3.33;89.15;95457.97;4182989;28;5643;-70
2021/12/08 09:16:46;;;;;;;;;;;;;;;3.33;89.18;95454.53;4194428;28;5677;-70
2021/12/08 09:18:58;;;;;;;;;;;;;;;3.32;89.61;95461.56;4197588;28;5758;-69
2021/12/08 09:21:13;;;;;;;;;;;;;;;3.19;89.58;95470.03;4190871;28;5779;-68
2021/12/08 09:23:26;;;;;;;;;;;;;;;3.21;89.49;95467.25;4194647;28;5757;-69
2021/12/08 09:25:36;;;;;;;;;;;;;;;3.19;90.07;95471.84;4171612;28;5661;-68
2021/12/08 09:27:45;;;;;;;;;;;;;;;3.32;88.98;95465.97;4187670;28;5799;-70
2021/12/08 09:29:56;;;;;;;;;;;;;;;3.27;90.08;95465.69;4190741;28;5649;-69
2021/12/08 09:32:06;;;;;;;;;;;;;;;3.22;89.64;95467.06;4180578;28;5678;-69
2021/12/08 09:34:25;;;;;;;;;;;;;;;3.00;90.53;95467.94;4189246;28;5791;-69
2021/12/08 09:36:39;;;;;;;;;;;;;;;3.06;90.56;95461.19;4196520;28;5748;-70
2021/12/08 09:38:48;;;;;;;;;;;;;;;2.99;90.49;95465.50;4194206;28;5770;-70
2021/12/08 09:41:03;;;;;;;;;;;;;;;2.96;91.11;95466.69;4188784;28;5675;-70
2021/12/08 09:43:15;;;;;;;;;;;;;;;3.06;90.64;95463.78;4191851;28;5795;-69
2021/12/08 09:45:45;;;;;;;;;;;;;;;3.16;89.41;95472.16;4175165;28;5640;-70
2021/12/08 09:47:48;;;;;;;;;;;;;;;2.92;90.56;95466.22;4178461;28;5655;-70
2021/12/08 09:49:50;;;;;;;;;;;;;;;3.01;91.08;95468.75;4192862;28;5825;-70
2021/12/08 09:51:54;;;;;;;;;;;;;;;3.19;89.90;95470.03;4194553;28;5870;-69
2021/12/08 09:53:56;;;;;;;;;;;;;;;3.10;90.42;95462.47;4184499;28;5782;-70
2021/12/08 09:55:58;;;;;;;;;;;;;;;2.96;89.82;95471.91;4187104;28;5794;-69
2021/12/08 09:58:00;;;;;;;;;;;;;;;2.94;90.46;95466.03;4195817;28;5884;-69
2021/12/08 10:00:06;;;;;;;;;;;;;;;2.87;89.96;95473.78;4183666;28;5657;-69
2021/12/08 10:02:09;;;;;;;;;;;;;;;2.85;90.80;95460.09;4166070;28;5713;-69
2021/12/08 10:04:12;;;;;;;;;;;;;;;2.65;91.69;95453.75;4170241;28;5801;-69
2021/12/08 10:06:15;;;;;;;;;;;;;;;2.68;92.25;95453.38;4184948;28;5744;-69
2021/12/08 10:08:18;;;;;;;;;;;;;;;2.63;91.74;95445.28;4166798;28;5938;-69
2021/12/08 10:10:20;;;;;;;;;;;;;;;2.86;91.33;95440.03;4178366;28;6434;-69
2021/12/08 10:12:21;;;;;;;;;;;;;;;2.89;91.11;95439.66;4168465;28;5861;-70
2021/12/08 10:14:24;;;;;;;;;;;;;;;2.89;91.08;95430.03;4195237;28;6345;-69
2021/12/08 10:16:26;;;;;;;;;;;;;;;2.84;91.28;95429.75;4181888;28;5860;-69
2021/12/08 10:18:28;;;;;;;;;;;;;;;2.72;92.38;95432.97;4183846;28;5655;-69
2021/12/08 10:20:32;;;;;;;;;;;;;;;2.99;92.01;95439.41;4184264;28;5670;-69
2021/12/08 10:22:34;;;;;;;;;;;;;;;3.10;91.17;95433.72;4183753;28;5650;-70
2021/12/08 10:24:35;;;;;;;;;;;;;;;3.16;90.37;95433.00;4185588;28;5905;-73
2021/12/08 10:26:37;;;;;;;;;;;;;;;3.26;90.36;95440.56;4190758;28;5635;-71
2021/12/08 10:28:48;;;;;;;;;;;;;;;3.44;89.60;95438.41;4180515;28;5650;-72
2021/12/08 10:30:54;;;;;;;;;;;;;;;3.55;89.43;95448.41;4188142;28;5663;-72
2021/12/08 10:32:56;;;;;;;;;;;;;;;3.56;88.84;95446.59;4158749;28;5673;-71
2021/12/08 10:35:05;;;;;;;;;;;;;;;3.47;89.42;95448.50;4180565;28;5722;-71
2021/12/08 10:37:18;;;;;;;;;;;;;;;3.39;89.35;95448.56;4174211;28;5864;-71
2021/12/08 10:39:29;;;;;;;;;;;;;;;3.49;89.55;95449.91;4173121;28;5822;-71
2021/12/08 10:41:49;;;;;;;;;;;;;;;3.44;89.00;95456.69;4187861;28;5865;-71
2021/12/08 10:44:11;;;;;;;;;;;;;;;3.48;88.33;95444.88;4184029;28;5667;-71
2021/12/08 10:46:14;;;;;;;;;;;;;;;3.44;89.03;95446.25;4183943;28;5839;-71
2021/12/08 10:48:33;;;;;;;;;;;;;;;3.53;89.41;95446.97;4183694;28;5660;-70
2021/12/08 10:55:50;;;;;;;;;;;;;;;3.78;88.06;95450.88;4172029;28;5758;-70
2021/12/08 10:57:54;;;;;;;;;;;;;;;3.71;88.43;95442.13;4199572;28;5620;-72
2021/12/08 11:00:10;;;;;;;;;;;;;;;3.84;88.95;95446.72;4193294;28;5646;-71
2021/12/08 11:02:31;;;;;;;;;;;;;;;4.01;88.20;95451.53;4195308;28;5640;-71
2021/12/08 11:04:34;;;;;;;;;;;;;;;4.08;88.18;95441.97;4187130;28;5647;-71
2021/12/08 11:06:38;;;;;;;;;;;;;;;4.12;87.80;95438.97;4192396;28;5643;-71
2021/12/08 11:08:44;;;;;;;;;;;;;;;4.01;87.59;95437.66;4186811;28;5725;-72
2021/12/08 11:11:00;;;;;;;;;;;;;;;4.03;87.69;95439.09;4193522;28;5770;-72
2021/12/08 11:13:04;;;;;;;;;;;;;;;4.06;86.74;95438.72;4186518;28;5662;-72
2021/12/08 11:15:20;;;;;;;;;;;;;;;3.98;87.17;95431.00;4198347;28;5345;-72
2021/12/08 11:17:27;;;;;;;;;;;;;;;4.05;87.76;95433.66;4195421;28;7158;-73
2021/12/08 11:19:29;;;;;;;;;;;;;;;4.17;87.42;95433.97;4169590;28;5673;-69
2021/12/08 11:21:37;;;;;;;;;;;;;;;4.17;87.18;95431.38;4173495;28;5789;-68
2021/12/08 11:23:51;;;;;;;;;;;;;;;4.03;87.01;95439.09;4186145;28;5650;-68
2021/12/08 11:25:53;;;;;;;;;;;;;;;3.99;86.93;95431.81;4172430;28;5676;-69
2021/12/08 11:27:54;;;;;;;;;;;;;;;4.00;86.32;95434.22;4187198;28;5641;-69
2021/12/08 11:29:56;;;;;;;;;;;;;;;3.96;86.74;95425.13;4163802;28;5677;-68
2021/12/08 11:32:00;;;;;;;;;;;;;;;3.94;87.22;95419.28;4183281;28;5663;-68
2021/12/08 11:34:05;;;;;;;;;;;;;;;4.01;87.17;95427.19;4172196;28;5662;-68
2021/12/08 11:36:10;;;;;;;;;;;;;;;3.93;87.65;95428.13;4182402;28;5666;-68
2021/12/08 11:38:12;;;;;;;;;;;;;;;3.90;87.48;95423.25;4169855;28;5672;-68
2021/12/08 11:40:16;;;;;;;;;;;;;;;3.81;87.21;95424.38;4166770;28;5666;-68
2021/12/08 11:42:31;;;;;;;;;;;;;;;3.97;87.33;95418.91;4186695;28;5817;-68
2021/12/08 11:44:37;;;;;;;;;;;;;;;4.06;87.35;95422.22;4171650;28;5895;-68
2021/12/08 11:47:07;;;;;;;;;;;;;;;4.05;87.42;95424.00;4185384;28;5769;-69
2021/12/08 11:49:10;;;;;;;;;;;;;;;3.92;87.54;95423.06;4148298;28;5691;-69
2021/12/08 11:51:12;;;;;;;;;;;;;;;3.75;87.97;95425.13;4186653;28;5738;-69
2021/12/08 11:53:20;;;;;;;;;;;;;;;4.02;87.83;95416.53;4185352;28;5659;-69
2021/12/08 11:55:24;;;;;;;;;;;;;;;4.23;87.03;95412.31;4170763;28;5769;-69
2021/12/08 11:57:32;;;;;;;;;;;;;;;3.86;86.70;95413.38;4185549;28;5651;-69
2021/12/08 11:59:43;;;;;;;;;;;;;;;3.89;87.27;95411.19;4203673;28;5639;-69
2021/12/08 12:01:46;;;;;;;;;;;;;;;3.80;87.94;95404.44;4185314;28;5658;-69
2021/12/08 12:03:48;;;;;;;;;;;;;;;3.69;88.48;95407.53;4203280;28;5627;-69
2021/12/08 12:05:49;;;;;;;;;;;;;;;3.66;88.54;95408.72;4185603;28;5646;-69
2021/12/08 12:07:51;;;;;;;;;;;;;;;3.72;88.30;95396.72;4185655;28;5726;-69
2021/12/08 12:09:54;;;;;;;;;;;;;;;3.59;88.95;95405.22;4203272;28;5660;-69
2021/12/08 12:11:58;;;;;;;;;;;;;;;3.58;89.24;95403.59;4185523;28;5705;-69
2021/12/08 12:14:00;;;;;;;;;;;;;;;3.70;88.31;95406.53;4185135;28;6332;-69
2021/12/08 12:16:02;;;;;;;;;;;;;;;3.77;87.74;95399.59;4185379;28;5808;-70
2021/12/08 12:18:04;;;;;;;;;;;;;;;3.85;87.86;95399.50;4185193;28;5769;-70
2021/12/08 12:20:39;;;;;;;;;;;;;;;3.74;88.10;95394.75;4185309;28;5643;-70
2021/12/08 12:22:44;;;;;;;;;;;;;;;3.84;87.11;95397.03;4186225;28;5771;-69
2021/12/08 12:25:29;;;;;;;;;;;;;;;3.42;88.11;95396.78;4185126;28;5663;-69
2021/12/08 12:27:58;;;;;;;;;;;;;;;3.37;88.25;95401.75;4177953;28;5824;-69
2021/12/08 12:30:26;;;;;;;;;;;;;;;3.22;88.57;95393.13;4173384;28;5575;-71
2021/12/08 12:32:32;;;;;;;;;;;;;;;3.31;88.97;95405.09;4167990;28;5665;-72
2021/12/08 12:34:37;;;;;;;;;;;;;;;3.53;88.94;95399.94;4182030;28;5650;-71
2021/12/08 12:36:39;;;;;;;;;;;;;;;3.70;87.95;95394.28;4179585;28;5541;-72
2021/12/08 12:38:41;;;;;;;;;;;;;;;3.58;87.08;95402.78;4177222;28;7257;-72
2021/12/08 12:40:50;;;;;;;;;;;;;;;3.60;87.62;95403.41;4173568;28;5401;-70
2021/12/08 12:42:57;;;;;;;;;;;;;;;3.62;87.24;95402.22;4167999;28;8517;-71
2021/12/08 12:45:00;;;;;;;;;;;;;;;3.75;87.62;95398.97;4152404;28;5664;-71
2021/12/08 12:47:09;;;;;;;;;;;;;;;3.83;87.19;95400.66;4174628;28;5573;-72
2021/12/08 12:49:29;;;;;;;;;;;;;;;3.55;86.73;95395.31;4171191;28;6583;-71
2021/12/08 12:52:03;;;;;;;;;;;;;;;3.36;87.42;95394.09;4179662;28;5796;-71
2021/12/08 12:54:24;;;;;;;;;;;;;;;3.47;87.74;95397.03;4182611;28;5741;-71
2021/12/08 12:56:29;;;;;;;;;;;;;;;3.58;87.76;95400.19;4186503;28;5964;-71
2021/12/08 12:58:39;;;;;;;;;;;;;;;3.72;87.29;95397.53;4170219;28;5806;-71
2021/12/08 13:01:09;;;;;;;;;;;;;;;3.80;87.12;95394.81;4167841;28;5808;-72
2021/12/08 13:03:36;;;;;;;;;;;;;;;3.58;87.18;95393.16;4180566;28;5811;-71
2021/12/08 13:05:55;;;;;;;;;;;;;;;3.55;86.77;95403.16;4185855;28;5792;-72
2021/12/08 13:07:59;;;;;;;;;;;;;;;3.62;86.53;95401.41;4182622;28;5650;-72
2021/12/08 13:10:11;;;;;;;;;;;;;;;3.90;85.96;95402.34;4177096;28;5793;-71
2021/12/08 13:12:24;;;;;;;;;;;;;;;4.03;85.98;95394.63;4175510;28;6385;-72
2021/12/08 13:14:28;;;;;;;;;;;;;;;3.98;85.87;95389.16;4202048;28;5672;-71
2021/12/08 13:16:34;;;;;;;;;;;;;;;4.18;85.51;95393.75;4185398;28;5639;-72
2021/12/08 13:18:57;;;;;;;;;;;;;;;3.85;85.42;95388.19;4189645;28;5632;-71
2021/12/08 13:21:01;;;;;;;;;;;;;;;3.72;86.94;95378.41;4195512;28;5655;-71
2021/12/08 13:23:06;;;;;;;;;;;;;;;3.65;86.55;95369.72;4168454;28;5662;-71
2021/12/08 13:25:59;;;;;;;;;;;;;;;3.38;87.09;95352.91;4184526;28;5793;-72
2021/12/08 13:28:31;;;;;;;;;;;;;;;3.07;88.22;95347.94;4185077;28;5706;-72
2021/12/08 13:30:40;;;;;;;;;;;;;;;3.15;88.47;95343.41;4190395;28;5623;-71
2021/12/08 13:32:46;;;;;;;;;;;;;;;3.31;88.38;95339.78;4189694;28;5702;-72
2021/12/08 13:34:57;;;;;;;;;;;;;;;3.44;87.28;95347.78;4188601;28;5632;-71
2021/12/08 13:37:18;;;;;;;;;;;;;;;3.53;86.99;95350.28;4186496;28;5658;-71
2021/12/08 13:39:27;;;;;;;;;;;;;;;3.57;86.83;95361.97;4169118;28;5658;-71
2021/12/08 13:41:56;;;;;;;;;;;;;;;3.76;86.39;95364.00;4185559;28;5631;-71
2021/12/08 13:44:02;;;;;;;;;;;;;;;3.84;86.20;95371.69;4193678;28;5799;-71
2021/12/08 13:46:09;;;;;;;;;;;;;;;3.87;85.11;95371.34;4202967;28;5631;-71
2021/12/08 13:48:11;;;;;;;;;;;;;;;3.96;85.18;95370.22;4191250;28;5663;-71
2021/12/08 13:50:13;;;;;;;;;;;;;;;4.02;85.41;95369.47;4167598;28;5645;-71
2021/12/08 13:52:20;;;;;;;;;;;;;;;3.65;84.47;95374.94;4193008;28;5628;-70
2021/12/08 13:54:30;;;;;;;;;;;;;;;3.61;85.03;95374.47;4198360;28;5726;-70
2021/12/08 13:56:41;;;;;;;;;;;;;;;3.74;84.71;95379.88;4170683;28;5795;-70
2021/12/08 13:58:42;;;;;;;;;;;;;;;3.84;84.63;95381.34;4170726;28;5865;-71
2021/12/08 14:00:56;;;;;;;;;;;;;;;3.61;84.77;95373.66;4187055;28;5753;-71
2021/12/08 14:03:02;;;;;;;;;;;;;;;3.72;85.31;95375.81;4194204;28;5824;-71
2021/12/08 14:05:03;;;;;;;;;;;;;;;3.67;84.37;95372.94;4176550;28;5710;-71
2021/12/08 14:07:17;;;;;;;;;;;;;;;3.60;84.34;95372.06;4192062;28;5890;-72
2021/12/08 14:09:18;;;;;;;;;;;;;;;3.49;84.65;95378.56;4193466;28;5081;-71
2021/12/08 14:11:23;;;;;;;;;;;;;;;3.41;85.72;95370.84;4195869;28;5094;-72
2021/12/08 14:13:28;;;;;;;;;;;;;;;3.63;85.92;95374.31;4199648;28;5070;-71
2021/12/08 14:15:41;;;;;;;;;;;;;;;3.80;85.75;95360.00;4201545;28;5781;-71
2021/12/08 14:17:42;;;;;;;;;;;;;;;3.73;85.81;95365.16;4168597;28;5850;-72
2021/12/08 14:19:44;;;;;;;;;;;;;;;3.70;85.63;95369.94;4189858;28;5755;-71
2021/12/08 14:21:48;;;;;;;;;;;;;;;3.53;86.16;95365.97;4199133;28;5636;-71
2021/12/08 14:24:10;;;;;;;;;;;;;;;3.52;86.79;95359.94;4198700;28;5775;-72
2021/12/08 14:26:21;;;;;;;;;;;;;;;3.70;86.21;95370.75;4185590;28;5642;-72
2021/12/08 14:28:39;;;;;;;;;;;;;;;3.77;85.62;95370.84;4196858;28;5659;-72
2021/12/08 14:30:46;;;;;;;;;;;;;;;3.74;85.33;95366.00;4176401;28;5673;-72
2021/12/08 14:33:03;;;;;;;;;;;;;;;3.52;85.75;95370.38;4188490;28;5650;-72
2021/12/08 14:35:10;;;;;;;;;;;;;;;3.61;86.31;95371.06;4170131;28;5646;-72
2021/12/08 14:37:14;;;;;;;;;;;;;;;3.70;85.72;95373.38;4190551;28;5647;-72
2021/12/08 14:39:38;;;;;;;;;;;;;;;3.84;84.75;95361.25;4188191;28;5774;-72
2021/12/08 14:41:42;;;;;;;;;;;;;;;3.74;85.50;95371.22;4195414;28;5624;-71
2021/12/08 14:43:44;;;;;;;;;;;;;;;3.66;85.36;95373.94;4204574;28;5746;-71
2021/12/08 14:45:46;;;;;;;;;;;;;;;3.60;86.22;95366.81;4198123;28;5634;-72
2021/12/08 14:47:52;;;;;;;;;;;;;;;3.61;85.64;95376.28;4193146;28;5631;-71
2021/12/08 14:50:03;;;;;;;;;;;;;;;3.50;85.88;95382.78;4186648;28;5698;-72
2021/12/08 14:52:09;;;;;;;;;;;;;;;3.66;85.44;95379.97;4170706;28;5669;-72
2021/12/08 14:54:15;;;;;;;;;;;;;;;3.94;85.20;95387.09;4169860;28;5749;-71
2021/12/08 14:56:17;;;;;;;;;;;;;;;3.85;84.12;95383.81;4169881;28;5661;-71
2021/12/08 14:58:18;;;;;;;;;;;;;;;3.61;85.45;95389.34;4187546;28;5658;-71
2021/12/08 15:00:31;;;;;;;;;;;;;;;3.53;85.37;95389.47;4187583;28;5638;-71
2021/12/08 15:02:39;;;;;;;;;;;;;;;3.44;85.63;95386.16;4187670;28;5737;-71
2021/12/08 15:04:42;;;;;;;;;;;;;;;3.53;86.02;95399.94;4187463;28;5655;-71
2021/12/08 15:06:59;;;;;;;;;;;;;;;3.47;86.33;95397.03;4199062;28;5628;-71
2021/12/08 15:09:00;;;;;;;;;;;;;;;3.59;85.62;95401.78;4188471;28;5689;-71
2021/12/08 15:11:02;;;;;;;;;;;;;;;3.75;85.56;95388.53;4168455;28;5789;-71
2021/12/08 15:13:31;;;;;;;;;;;;;;;3.84;85.23;95395.22;4201187;28;5627;-73
2021/12/08 15:15:33;;;;;;;;;;;;;;;4.02;85.61;95389.59;4178048;28;5714;-73
2021/12/08 15:17:35;;;;;;;;;;;;;;;4.22;84.84;95389.78;4171057;28;5852;-72
2021/12/08 15:19:48;;;;;;;;;;;;;;;4.26;84.73;95397.06;4170549;28;5657;-72
2021/12/08 15:21:54;;;;;;;;;;;;;;;4.25;84.92;95390.22;4163458;28;5675;-72
2021/12/08 15:24:05;;;;;;;;;;;;;;;4.21;85.60;95398.63;4186503;28;5651;-72
2021/12/08 15:26:09;;;;;;;;;;;;;;;4.13;86.02;95396.13;4182629;28;5654;-72
2021/12/08 15:28:15;;;;;;;;;;;;;;;4.13;86.20;95399.56;4202355;28;5790;-72
2021/12/08 15:30:36;;;;;;;;;;;;;;;3.88;87.40;95399.13;4178726;28;5812;-71
2021/12/08 15:33:05;;;;;;;;;;;;;;;4.07;86.76;95400.28;4193642;28;5747;-72
2021/12/08 15:35:11;;;;;;;;;;;;;;;4.07;86.88;95397.66;4183080;28;5757;-72
2021/12/08 15:37:16;;;;;;;;;;;;;;;4.04;86.76;95398.88;4173182;28;5900;-71
2021/12/08 15:39:22;;;;;;;;;;;;;;;4.02;86.79;95410.50;4211501;28;5648;-72
2021/12/08 15:41:27;;;;;;;;;;;;;;;4.02;87.02;95410.50;4204018;28;5784;-72
2021/12/08 15:43:30;;;;;;;;;;;;;;;4.13;86.64;95411.81;4200899;28;5678;-72
2021/12/08 15:45:34;;;;;;;;;;;;;;;4.13;85.97;95406.59;4168666;28;5756;-72
2021/12/08 15:47:42;;;;;;;;;;;;;;;4.18;86.06;95414.66;4169338;28;5745;-72
2021/12/08 15:49:45;;;;;;;;;;;;;;;4.06;86.38;95412.56;4152613;28;5760;-72
2021/12/08 15:51:47;;;;;;;;;;;;;;;4.15;85.86;95425.53;4186006;28;5654;-72
2021/12/08 15:53:58;;;;;;;;;;;;;;;4.14;85.71;95418.66;4189086;28;5826;-71
2021/12/08 15:56:20;;;;;;;;;;;;;;;4.32;85.56;95417.25;4195318;28;6300;-72
2021/12/08 15:58:22;;;;;;;;;;;;;;;4.39;85.94;95414.66;4194966;28;6356;-71
2021/12/08 16:00:57;;;;;;;;;;;;;;;4.46;85.40;95417.34;4199805;28;5655;-72
2021/12/08 16:02:59;;;;;;;;;;;;;;;4.49;85.19;95423.00;4134395;28;5640;-71
2021/12/08 16:05:06;;;;;;;;;;;;;;;4.52;85.35;95417.41;4168780;28;5688;-72
2021/12/08 16:07:29;;;;;;;;;;;;;;;4.51;85.13;95426.25;4153889;28;5687;-72
2021/12/08 16:09:38;;;;;;;;;;;;;;;4.52;84.96;95422.63;4186110;28;5695;-71
2021/12/08 16:11:40;;;;;;;;;;;;;;;4.37;84.82;95424.53;4193203;28;5780;-71
2021/12/08 16:13:42;;;;;;;;;;;;;;;4.08;83.83;95428.91;4197335;28;5640;-71
2021/12/08 16:15:45;;;;;;;;;;;;;;;4.23;84.36;95428.81;4186801;28;5710;-72
2021/12/08 16:17:58;;;;;;;;;;;;;;;4.27;85.00;95435.28;4189240;28;5760;-73
2021/12/08 16:20:14;;;;;;;;;;;;;;;4.14;85.31;95435.16;4169073;28;5801;-72
2021/12/08 16:22:19;;;;;;;;;;;;;;;4.12;85.07;95436.34;4194616;28;5533;-68
2021/12/08 16:24:22;;;;;;;;;;;;;;;3.96;85.30;95442.63;4200008;28;6208;-69
2021/12/08 16:26:24;;;;;;;;;;;;;;;4.01;85.58;95446.31;4207423;28;5628;-70
2021/12/08 16:28:26;;;;;;;;;;;;;;;3.80;85.42;95448.88;4194069;28;5672;-70
2021/12/08 16:30:27;;;;;;;;;;;;;;;4.05;84.89;95442.31;4195943;28;5889;-68
2021/12/08 16:32:30;;;;;;;;;;;;;;;4.05;85.28;95447.56;4176734;28;5674;-68
2021/12/08 16:34:37;;;;;;;;;;;;;;;4.15;85.79;95451.66;4180078;28;5921;-69
2021/12/08 16:36:39;;;;;;;;;;;;;;;4.09;85.66;95443.59;4159607;28;5688;-69
2021/12/08 16:38:41;;;;;;;;;;;;;;;4.02;86.00;95452.34;4193577;28;5644;-69
2021/12/08 16:43:03;;;;;;;;;;;;;;;4.01;86.10;95454.16;4192494;28;5645;-73
2021/12/08 16:45:08;;;;;;;;;;;;;;;4.08;85.79;95452.44;4169057;28;5924;-72
2021/12/08 16:47:11;;;;;;;;;;;;;;;4.00;86.26;95460.38;4188594;28;5766;-71
2021/12/08 16:49:13;;;;;;;;;;;;;;;4.00;86.07;95462.19;4192679;28;5725;-72
2021/12/08 16:51:15;;;;;;;;;;;;;;;3.98;86.20;95464.19;4201326;28;6352;-72
2021/12/08 16:53:17;;;;;;;;;;;;;;;3.92;85.84;95470.94;4193148;28;5631;-70
2021/12/08 16:55:21;;;;;;;;;;;;;;;3.75;86.64;95466.94;4200925;28;5640;-73
2021/12/08 16:57:24;;;;;;;;;;;;;;;3.78;85.94;95469.19;4173781;28;5892;-73
2021/12/08 16:59:25;;;;;;;;;;;;;;;3.76;85.86;95473.78;4190663;28;5755;-74
2021/12/08 17:01:28;;;;;;;;;;;;;;;3.71;86.26;95476.13;4190507;28;5663;-73
2021/12/08 17:03:32;;;;;;;;;;;;;;;3.73;85.95;95474.13;4186821;28;5788;-69
2021/12/08 17:05:34;;;;;;;;;;;;;;;3.75;86.24;95477.41;4191237;28;5725;-70
2021/12/08 17:07:36;;;;;;;;;;;;;;;3.70;86.39;95475.31;4185368;28;6303;-70
2021/12/08 17:09:37;;;;;;;;;;;;;;;3.68;86.23;95472.06;4184731;28;5663;-70
2021/12/08 17:11:42;;;;;;;;;;;;;;;3.65;86.33;95477.66;4196961;28;5809;-70
2021/12/08 17:13:44;;;;;;;;;;;;;;;3.69;86.39;95478.91;4193111;28;5647;-70
2021/12/08 17:15:46;;;;;;;;;;;;;;;3.69;86.49;95483.34;4191500;28;5688;-70
2021/12/08 17:17:48;;;;;;;;;;;;;;;3.71;86.50;95482.16;4173412;28;5653;-70
2021/12/08 17:19:51;;;;;;;;;;;;;;;3.32;87.13;95485.06;4191864;28;5650;-71
2021/12/08 17:21:53;;;;;;;;;;;;;;;3.59;87.03;95488.03;4174778;28;5663;-72
2021/12/08 17:23:55;;;;;;;;;;;;;;;3.68;86.56;95486.94;4202259;28;5641;-71
2021/12/08 17:25:57;;;;;;;;;;;;;;;3.61;86.82;95496.50;4200902;28;5624;-71
2021/12/08 17:27:59;;;;;;;;;;;;;;;3.59;86.23;95493.25;4185586;28;5659;-71
2021/12/08 17:30:01;;;;;;;;;;;;;;;3.61;86.38;95493.88;4167715;28;5684;-71
2021/12/08 17:32:03;;;;;;;;;;;;;;;3.50;86.92;95495.97;4185696;28;5663;-71
2021/12/08 17:34:05;;;;;;;;;;;;;;;3.63;86.93;95497.16;4185548;28;5635;-71
2021/12/08 17:36:08;;;;;;;;;;;;;;;3.65;86.84;95497.78;4155789;28;5677;-70
2021/12/08 17:38:09;;;;;;;;;;;;;;;3.44;85.64;95493.28;4167590;28;5706;-71
2021/12/08 17:40:11;;;;;;;;;;;;;;;3.38;86.49;95499.19;4185400;28;5750;-71
2021/12/08 17:42:13;;;;;;;;;;;;;;;3.34;86.28;95498.75;4184121;28;5650;-71
2021/12/08 17:44:17;;;;;;;;;;;;;;;3.12;87.03;95508.28;4185301;28;5643;-70
2021/12/08 17:46:19;;;;;;;;;;;;;;;3.34;86.73;95505.78;4185269;28;5654;-71
2021/12/08 17:48:21;;;;;;;;;;;;;;;3.44;86.61;95511.56;4163335;28;6260;-71
2021/12/08 17:50:24;;;;;;;;;;;;;;;3.48;86.16;95504.97;4208932;28;5620;-70